Terminal Aerodrome Forecast
Issued by NWS

Home | Current Version | Previous Version | Text Only | Print | Product List | Glossary On
Versions: 1 2 3 4 5 6 7 8 9 10 11 12
000
FTUS43 KGLD 272326
TAFMCK
TAF
KMCK 272326Z 2800/2824 35008KT P6SM VCSH SCT070 BKN140
     FM280200 32007KT P6SM SCT140
     FM281300 33012KT P6SM FEW200=

USA.gov is the U.S. government's official web portal to all federal, state and local government web resources and services.